createdAt,value
2023-04-11T00:00:16.813Z,16.92
2023-04-11T00:02:45.382Z,21.95
2023-04-11T00:05:14.460Z,18.02
2023-04-11T00:07:42.752Z,14.57
2023-04-11T00:10:11.745Z,17.77
2023-04-11T00:12:40.140Z,17.13
2023-04-11T00:15:09.670Z,11.65
2023-04-11T00:17:39.481Z,8.27
2023-04-11T00:20:11.082Z,8.93
2023-04-11T00:22:40.108Z,7.20
2023-04-11T00:25:09.051Z,8.20
2023-04-11T00:27:37.347Z,5.32
2023-04-11T00:30:06.956Z,4.55
2023-04-11T00:32:35.474Z,5.40
2023-04-11T00:35:05.726Z,5.57
2023-04-11T00:37:36.367Z,4.82
2023-04-11T00:40:07.795Z,6.30
2023-04-11T00:42:36.109Z,9.85
2023-04-11T00:45:04.850Z,9.35
2023-04-11T00:47:34.581Z,12.45
2023-04-11T00:50:04.856Z,9.30
2023-04-11T00:52:33.661Z,10.88
2023-04-11T00:55:04.154Z,7.25
2023-04-11T00:57:32.473Z,6.55
2023-04-11T01:00:03.724Z,7.00
2023-04-11T01:02:32.284Z,9.13
2023-04-11T01:05:00.915Z,6.25
2023-04-11T01:07:32.578Z,7.90
2023-04-11T01:10:02.633Z,8.80
2023-04-11T01:12:31.667Z,10.20
2023-04-11T01:15:00.288Z,9.40
2023-04-11T01:17:28.541Z,10.60
2023-04-11T01:19:56.587Z,10.63
2023-04-11T01:22:25.600Z,6.93
2023-04-11T01:24:55.090Z,6.60
2023-04-11T01:27:23.329Z,9.00
2023-04-11T01:29:52.203Z,6.78
2023-04-11T01:32:20.508Z,11.60
2023-04-11T01:34:49.348Z,6.93
2023-04-11T01:37:17.548Z,5.07
2023-04-11T01:39:45.650Z,10.13
2023-04-11T01:42:16.151Z,10.07
2023-04-11T01:44:44.675Z,13.48
2023-04-11T01:47:12.696Z,9.68
2023-04-11T01:49:40.738Z,10.05
2023-04-11T01:52:09.285Z,10.00
2023-04-11T01:54:37.528Z,6.30
2023-04-11T01:57:07.612Z,9.40
2023-04-11T01:59:38.333Z,8.60
2023-04-11T02:02:06.527Z,10.82
2023-04-11T02:04:34.637Z,5.93
2023-04-11T02:07:02.667Z,11.93
2023-04-11T02:09:30.757Z,10.68
2023-04-11T02:12:00.118Z,15.73
2023-04-11T02:14:29.867Z,12.05
2023-04-11T02:17:00.009Z,12.15
2023-04-11T02:19:28.077Z,11.35
2023-04-11T02:21:56.092Z,9.10
2023-04-11T02:24:24.117Z,8.75
2023-04-11T02:26:52.180Z,10.20
2023-04-11T02:29:20.207Z,12.60
2023-04-11T02:31:51.005Z,9.18
2023-04-11T02:34:20.418Z,9.32
2023-04-11T02:36:49.037Z,10.05
2023-04-11T02:39:17.191Z,9.45
2023-04-11T02:41:45.363Z,13.05
2023-04-11T02:44:13.606Z,11.35
2023-04-11T02:46:43.252Z,6.38
2023-04-11T02:49:11.901Z,14.13
2023-04-11T02:51:41.311Z,13.55
2023-04-11T02:54:09.570Z,11.00
2023-04-11T02:56:39.319Z,13.30
2023-04-11T02:59:07.607Z,9.75
2023-04-11T03:01:37.773Z,12.32
2023-04-11T03:04:07.363Z,11.40
2023-04-11T03:06:49.780Z,11.35
2023-04-11T03:09:18.021Z,16.45
2023-04-11T03:11:47.446Z,13.88
2023-04-11T03:14:16.248Z,15.85
2023-04-11T03:16:44.318Z,11.48
2023-04-11T03:19:13.102Z,13.13
2023-04-11T03:21:41.175Z,11.43
2023-04-11T03:24:12.632Z,16.67
2023-04-11T03:26:41.261Z,10.98
2023-04-11T03:29:12.678Z,17.00
2023-04-11T03:31:53.615Z,10.73
2023-04-11T03:34:22.029Z,12.25
2023-04-11T03:36:50.991Z,12.25
2023-04-11T03:39:21.744Z,11.38
2023-04-11T03:41:51.070Z,11.00
2023-04-11T03:44:19.880Z,8.98
2023-04-11T03:46:48.710Z,11.93
2023-04-11T03:49:17.275Z,10.43
2023-04-11T03:51:50.209Z,5.75
2023-04-11T03:54:18.308Z,8.02
2023-04-11T03:56:47.706Z,7.65
2023-04-11T03:59:21.351Z,8.00
2023-04-11T04:01:55.163Z,4.97
2023-04-11T04:04:23.648Z,5.85
2023-04-11T04:07:01.908Z,5.47
2023-04-11T04:09:37.288Z,9.70
2023-04-11T04:12:08.019Z,5.68
2023-04-11T04:14:50.259Z,9.32
2023-04-11T04:17:19.003Z,2.67
2023-04-11T04:19:47.139Z,5.55
2023-04-11T04:22:17.718Z,6.82
2023-04-11T04:24:51.861Z,5.72
2023-04-11T04:27:25.314Z,8.60
2023-04-11T04:29:56.625Z,6.40
2023-04-11T04:32:41.191Z,10.43
2023-04-11T04:35:14.237Z,5.88
2023-04-11T04:37:45.685Z,7.97
2023-04-11T04:40:40.016Z,7.05
2023-04-11T04:43:11.617Z,9.57
2023-04-11T04:45:47.692Z,6.70
2023-04-11T04:48:20.874Z,9.77
2023-04-11T04:50:48.894Z,8.18
2023-04-11T04:53:17.361Z,7.68
2023-04-11T04:55:52.441Z,6.97
2023-04-11T04:58:23.212Z,13.65
2023-04-11T05:00:55.923Z,7.97
2023-04-11T05:03:28.067Z,7.60
2023-04-11T05:05:56.799Z,7.10
2023-04-11T05:08:26.179Z,8.73
2023-04-11T05:10:57.166Z,6.10
2023-04-11T05:13:26.768Z,8.82
2023-04-11T05:15:54.798Z,8.98
2023-04-11T05:18:26.672Z,6.53
2023-04-11T05:20:54.668Z,12.77
2023-04-11T05:23:25.804Z,13.15
2023-04-11T05:25:56.327Z,10.73
2023-04-11T05:28:26.425Z,13.38
2023-04-11T05:30:54.620Z,10.48
2023-04-11T05:33:24.734Z,8.40
2023-04-11T05:35:53.239Z,10.70
2023-04-11T05:38:21.475Z,12.52
2023-04-11T05:40:49.463Z,14.00
2023-04-11T05:43:17.627Z,12.95
2023-04-11T05:45:47.995Z,12.82
2023-04-11T05:48:19.734Z,11.70
2023-04-11T05:50:49.000Z,10.80
2023-04-11T05:53:17.119Z,12.45
2023-04-11T05:55:45.349Z,11.02
2023-04-11T05:58:13.344Z,15.82
2023-04-11T06:00:41.604Z,13.90
2023-04-11T06:03:11.066Z,16.60
2023-04-11T06:05:39.309Z,12.10
2023-04-11T06:08:08.762Z,12.02
2023-04-11T06:10:37.304Z,17.05
2023-04-11T06:13:05.444Z,12.77
2023-04-11T06:15:33.549Z,14.43
2023-04-11T06:18:01.774Z,13.00
2023-04-11T06:20:31.405Z,14.30
2023-04-11T06:23:01.408Z,18.40
2023-04-11T06:25:29.439Z,9.55
2023-04-11T06:27:57.444Z,10.35
2023-04-11T06:30:25.529Z,5.15
2023-04-11T06:32:53.608Z,7.30
2023-04-11T06:35:24.866Z,7.85
2023-04-11T06:37:54.315Z,8.45
2023-04-11T06:40:22.328Z,6.28
2023-04-11T06:42:50.351Z,9.90
2023-04-11T06:45:18.763Z,10.48
2023-04-11T06:47:46.854Z,14.88
2023-04-11T06:50:14.947Z,13.85
2023-04-11T06:52:42.971Z,11.25
2023-04-11T06:55:15.377Z,14.23
2023-04-11T06:57:44.964Z,15.23
2023-04-11T07:00:14.007Z,13.85
2023-04-11T07:02:42.183Z,17.55
2023-04-11T07:05:10.709Z,15.05
2023-04-11T07:07:38.809Z,14.32
2023-04-11T07:10:08.101Z,14.15
2023-04-11T07:12:37.580Z,14.55
2023-04-11T07:15:06.203Z,14.82
2023-04-11T07:17:34.327Z,8.90
2023-04-11T07:20:02.333Z,6.50
2023-04-11T07:22:30.417Z,4.72
2023-04-11T07:24:58.437Z,7.18
2023-04-11T07:27:26.596Z,10.95
2023-04-11T07:29:56.388Z,8.73
2023-04-11T07:32:24.522Z,11.95
2023-04-11T07:34:52.601Z,12.02
2023-04-11T07:37:20.785Z,9.95
2023-04-11T07:39:49.738Z,10.18
2023-04-11T07:42:17.799Z,11.43
2023-04-11T07:44:46.080Z,9.48
2023-04-11T07:47:16.708Z,20.42
2023-04-11T07:49:44.764Z,14.52
2023-04-11T07:52:14.164Z,10.63
2023-04-11T07:54:42.575Z,12.75
2023-04-11T07:57:10.784Z,13.32
2023-04-11T07:59:38.811Z,12.00
2023-04-11T08:02:08.190Z,13.18
2023-04-11T08:04:38.631Z,14.75
2023-04-11T08:07:06.870Z,10.55
2023-04-11T08:09:35.446Z,17.98
2023-04-11T08:12:03.592Z,17.33
2023-04-11T08:14:31.664Z,11.68
2023-04-11T08:17:01.002Z,13.55
2023-04-11T08:19:29.218Z,18.02
2023-04-11T08:21:58.702Z,12.95
2023-04-11T08:24:26.752Z,12.57
2023-04-11T08:26:54.834Z,14.15
2023-04-11T08:29:22.940Z,15.60
2023-04-11T08:31:50.984Z,13.77
2023-04-11T08:34:19.608Z,20.25
2023-04-11T08:36:47.641Z,15.25
2023-04-11T08:39:17.014Z,18.85
2023-04-11T08:41:45.127Z,15.50
2023-04-11T08:44:13.221Z,21.13
2023-04-11T08:46:43.652Z,14.27
2023-04-11T08:49:12.084Z,12.48
2023-04-11T08:51:44.558Z,11.32
2023-04-11T08:54:13.337Z,16.88
2023-04-11T08:56:43.916Z,13.90
2023-04-11T08:59:12.086Z,11.75
2023-04-11T09:01:40.862Z,7.93
2023-04-11T09:04:10.656Z,5.85
2023-04-11T09:06:40.250Z,11.88
2023-04-11T09:09:09.715Z,12.57
2023-04-11T09:11:55.566Z,12.50
2023-04-11T09:14:26.912Z,10.88
2023-04-11T09:16:56.845Z,14.43
2023-04-11T09:19:25.967Z,15.98
2023-04-11T09:21:55.033Z,12.35
2023-04-11T09:24:23.467Z,11.80
2023-04-11T09:26:52.328Z,10.93
2023-04-11T09:29:37.472Z,13.38
2023-04-11T09:32:05.928Z,16.98
2023-04-11T09:34:37.502Z,19.23
2023-04-11T09:37:05.873Z,15.93
2023-04-11T09:39:33.979Z,18.83
2023-04-11T09:42:03.323Z,15.00
2023-04-11T09:44:39.649Z,18.48
2023-04-11T09:47:07.712Z,11.40
2023-04-11T09:49:36.605Z,11.55
2023-04-11T09:52:06.315Z,10.63
2023-04-11T09:54:34.490Z,15.75
2023-04-11T09:57:04.091Z,10.88
2023-04-11T09:59:33.848Z,10.85
2023-04-11T10:02:04.825Z,15.32
2023-04-11T10:04:34.609Z,10.57
2023-04-11T10:07:10.510Z,13.05
2023-04-11T10:09:40.632Z,13.68
2023-04-11T10:12:08.765Z,13.70
2023-04-11T10:14:43.721Z,9.32
2023-04-11T10:17:16.886Z,7.45
2023-04-11T10:19:48.262Z,12.70
2023-04-11T10:22:49.591Z,6.00
2023-04-11T10:25:17.978Z,9.50
2023-04-11T10:27:49.534Z,11.30
2023-04-11T10:30:17.826Z,10.20
2023-04-11T10:33:15.711Z,11.18
2023-04-11T10:35:58.022Z,9.57
2023-04-11T10:38:47.177Z,7.70
2023-04-11T10:41:31.958Z,9.32
2023-04-11T10:44:15.043Z,8.23
2023-04-11T10:46:47.913Z,6.85
2023-04-11T10:49:36.385Z,15.35
2023-04-11T10:52:21.974Z,6.97
2023-04-11T10:54:51.711Z,8.85
2023-04-11T10:57:20.555Z,9.70
2023-04-11T10:59:59.280Z,5.28
2023-04-11T11:02:43.021Z,12.65
2023-04-11T11:05:23.651Z,13.38
2023-04-11T11:07:54.006Z,7.57
2023-04-11T11:10:52.135Z,8.60
2023-04-11T11:13:20.269Z,10.23
2023-04-11T11:15:49.641Z,15.20
2023-04-11T11:18:18.050Z,8.70
2023-04-11T11:20:55.584Z,11.38
2023-04-11T11:23:29.786Z,9.55
2023-04-11T11:26:01.497Z,7.93
2023-04-11T11:28:34.265Z,9.13
2023-04-11T11:31:06.346Z,9.63
2023-04-11T11:33:43.528Z,9.32
2023-04-11T11:36:17.118Z,11.60
2023-04-11T11:38:55.469Z,7.93
2023-04-11T11:41:25.512Z,4.05
2023-04-11T11:43:56.454Z,4.93
2023-04-11T11:46:34.179Z,3.42
2023-04-11T11:49:05.613Z,6.18
2023-04-11T11:51:48.569Z,7.35
2023-04-11T11:54:19.976Z,8.68
2023-04-11T11:56:54.553Z,6.45
2023-04-11T11:59:34.115Z,8.68
2023-04-11T12:02:07.651Z,9.57
2023-04-11T12:04:39.604Z,5.32
2023-04-11T12:07:22.979Z,8.20
2023-04-11T12:10:01.380Z,11.25
2023-04-11T12:12:41.856Z,11.38
2023-04-11T12:15:13.424Z,10.55
2023-04-11T12:17:45.198Z,11.27
2023-04-11T12:20:16.983Z,11.20
2023-04-11T12:22:53.023Z,10.70
2023-04-11T12:25:26.112Z,9.75
2023-04-11T12:27:56.105Z,10.15
2023-04-11T12:30:27.226Z,11.63
2023-04-11T12:32:58.192Z,12.85
2023-04-11T12:35:27.396Z,6.25
2023-04-11T12:38:00.184Z,11.82
2023-04-11T12:40:31.136Z,12.95
2023-04-11T12:43:00.799Z,14.02
2023-04-11T12:45:30.408Z,13.80
2023-04-11T12:48:04.891Z,8.88
2023-04-11T12:50:34.248Z,15.57
2023-04-11T12:53:08.696Z,14.52
2023-04-11T12:55:43.939Z,8.07
2023-04-11T12:58:15.491Z,11.90
2023-04-11T13:00:48.172Z,13.13
2023-04-11T13:03:31.939Z,11.48
2023-04-11T13:06:02.388Z,12.05
2023-04-11T13:08:33.841Z,14.05
2023-04-11T13:11:06.318Z,11.60
2023-04-11T13:13:41.376Z,5.68
2023-04-11T13:16:14.123Z,6.50
2023-04-11T13:18:52.710Z,6.35
2023-04-11T13:21:22.367Z,7.10
2023-04-11T13:23:53.898Z,7.82
2023-04-11T13:26:23.618Z,10.93
2023-04-11T13:28:53.412Z,10.73
2023-04-11T13:31:27.043Z,13.02
2023-04-11T13:33:57.439Z,6.97
2023-04-11T13:36:27.149Z,12.00
2023-04-11T13:38:57.630Z,12.32
2023-04-11T13:41:26.663Z,11.35
2023-04-11T13:43:54.675Z,11.77
2023-04-11T13:46:23.384Z,10.75
2023-04-11T13:48:51.893Z,12.88
2023-04-11T13:51:20.604Z,11.52
2023-04-11T13:53:48.711Z,8.40
2023-04-11T13:56:18.184Z,15.25
2023-04-11T13:58:46.256Z,8.18
2023-04-11T14:01:15.507Z,12.77
2023-04-11T14:03:44.889Z,9.50
2023-04-11T14:06:13.150Z,14.43
2023-04-11T14:08:41.697Z,11.25
2023-04-11T14:11:09.910Z,14.05
2023-04-11T14:13:39.441Z,11.18
2023-04-11T14:16:09.523Z,9.50
2023-04-11T14:18:38.057Z,8.93
2023-04-11T14:21:07.283Z,13.45
2023-04-11T14:23:35.908Z,10.60
2023-04-11T14:26:03.986Z,13.27
2023-04-11T14:28:32.179Z,13.18
2023-04-11T14:31:01.746Z,16.13
2023-04-11T14:33:29.935Z,15.90
2023-04-11T14:35:57.984Z,11.48
2023-04-11T14:38:26.111Z,18.33
2023-04-11T14:40:54.188Z,15.80
2023-04-11T14:43:22.754Z,16.33
2023-04-11T14:45:51.026Z,13.65
2023-04-11T14:48:20.460Z,16.33
2023-04-11T14:50:48.594Z,11.48
2023-04-11T14:53:16.753Z,18.15
2023-04-11T14:55:44.849Z,14.93
2023-04-11T14:58:12.918Z,15.50
2023-04-11T15:00:41.078Z,21.13
2023-04-11T15:03:10.422Z,12.68
2023-04-11T15:05:40.416Z,11.63
2023-04-11T15:08:09.987Z,16.05
2023-04-11T15:10:38.151Z,13.55
2023-04-11T15:13:07.174Z,13.52
2023-04-11T15:15:35.432Z,14.25
2023-04-11T15:18:25.514Z,17.40
2023-04-11T15:20:56.587Z,20.60
2023-04-11T15:23:25.248Z,17.02
2023-04-11T15:25:55.325Z,17.27
2023-04-11T15:28:24.297Z,15.50
2023-04-11T15:30:53.673Z,16.60
2023-04-11T15:33:24.321Z,15.27
2023-04-11T15:35:55.155Z,12.52
2023-04-11T15:38:23.478Z,14.98
2023-04-11T15:40:52.311Z,13.77
2023-04-11T15:43:20.389Z,15.02
2023-04-11T15:45:49.075Z,15.02
2023-04-11T15:48:17.331Z,19.60
2023-04-11T15:50:46.331Z,17.73
2023-04-11T15:53:15.899Z,16.52
2023-04-11T15:55:44.893Z,15.98
2023-04-11T15:58:12.943Z,13.68
2023-04-11T16:00:42.186Z,12.25
2023-04-11T16:03:10.948Z,13.77
2023-04-11T16:05:43.135Z,18.48
2023-04-11T16:08:11.868Z,16.52
2023-04-11T16:10:41.644Z,15.48
2023-04-11T16:13:10.680Z,16.75
2023-04-11T16:15:38.782Z,12.55
2023-04-11T16:18:07.240Z,16.35
2023-04-11T16:20:35.828Z,12.63
2023-04-11T16:23:04.013Z,14.48
2023-04-11T16:25:32.530Z,11.65
2023-04-11T16:28:02.046Z,13.10
2023-04-11T16:30:30.519Z,12.05
2023-04-11T16:32:58.691Z,16.00
2023-04-11T16:35:26.938Z,10.18
2023-04-11T16:37:55.032Z,7.57
2023-04-11T16:40:23.166Z,19.80
2023-04-11T16:42:51.160Z,15.80
2023-04-11T16:45:21.295Z,12.73
2023-04-11T16:47:49.456Z,10.52
2023-04-11T16:50:17.951Z,13.10
2023-04-11T16:52:46.040Z,11.18
2023-04-11T16:55:15.079Z,13.57
2023-04-11T16:57:43.317Z,14.35
2023-04-11T17:00:15.305Z,13.45
2023-04-11T17:02:45.034Z,12.65
2023-04-11T17:05:13.488Z,10.25
2023-04-11T17:07:41.787Z,8.70
2023-04-11T17:10:10.775Z,11.63
2023-04-11T17:12:38.795Z,10.93
2023-04-11T17:15:08.435Z,11.50
2023-04-11T17:17:36.904Z,9.55
2023-04-11T17:20:09.802Z,15.63
2023-04-11T17:22:41.338Z,12.10
2023-04-11T17:25:10.554Z,11.63
2023-04-11T17:27:38.723Z,12.13
2023-04-11T17:30:09.586Z,12.77
2023-04-11T17:32:38.393Z,12.65
2023-04-11T17:35:08.843Z,13.15
2023-04-11T17:37:37.027Z,7.82
2023-04-11T17:40:11.303Z,12.52
2023-04-11T17:42:40.111Z,13.15
2023-04-11T17:45:16.638Z,15.48
2023-04-11T17:47:46.358Z,13.68
2023-04-11T17:50:16.456Z,12.32
2023-04-11T17:52:46.202Z,14.05
2023-04-11T17:55:17.396Z,24.23
2023-04-11T17:57:46.333Z,13.27
2023-04-11T18:00:19.459Z,14.88
2023-04-11T18:02:49.188Z,14.50
2023-04-11T18:05:24.452Z,13.48
2023-04-11T18:07:54.781Z,15.15
2023-04-11T18:10:23.133Z,10.48
2023-04-11T18:12:52.372Z,9.80
2023-04-11T18:15:21.110Z,15.00
2023-04-11T18:17:49.399Z,10.18
2023-04-11T18:20:19.355Z,24.35
2023-04-11T18:22:48.604Z,25.45
2023-04-11T18:25:16.614Z,39.63
2023-04-11T18:27:44.808Z,52.70
2023-04-11T18:30:14.128Z,46.38
2023-04-11T18:32:48.537Z,36.72
2023-04-11T18:35:19.769Z,23.08
2023-04-11T18:37:47.982Z,21.48
2023-04-11T18:40:16.721Z,20.33
2023-04-11T18:42:46.682Z,16.55
2023-04-11T18:45:15.500Z,19.48
2023-04-11T18:47:44.208Z,20.23
2023-04-11T18:50:12.639Z,21.77
2023-04-11T18:52:43.414Z,19.92
2023-04-11T18:55:12.319Z,20.88
2023-04-11T18:57:41.237Z,19.45
2023-04-11T19:00:17.997Z,13.65
2023-04-11T19:02:47.688Z,17.60
2023-04-11T19:05:16.501Z,14.30
2023-04-11T19:07:46.890Z,16.70
2023-04-11T19:10:14.930Z,13.27
2023-04-11T19:12:43.123Z,13.45
2023-04-11T19:15:12.293Z,15.40
2023-04-11T19:17:40.566Z,18.88
2023-04-11T19:20:12.604Z,17.02
2023-04-11T19:22:41.288Z,16.90
2023-04-11T19:25:12.147Z,18.20
2023-04-11T19:27:41.591Z,15.70
2023-04-11T19:30:11.380Z,17.60
2023-04-11T19:32:43.037Z,20.08
2023-04-11T19:35:12.603Z,21.23
2023-04-11T19:37:41.832Z,17.95
2023-04-11T19:40:13.473Z,18.63
2023-04-11T19:42:42.051Z,21.58
2023-04-11T19:45:11.025Z,18.40
2023-04-11T19:47:40.394Z,19.52
2023-04-11T19:50:11.997Z,22.33
2023-04-11T19:52:40.215Z,21.53
2023-04-11T19:55:10.143Z,18.20
2023-04-11T19:57:40.272Z,17.37
2023-04-11T20:00:14.112Z,22.35
2023-04-11T20:02:45.336Z,20.93
2023-04-11T20:05:14.849Z,23.67
2023-04-11T20:07:44.121Z,19.30
2023-04-11T20:10:13.020Z,22.30
2023-04-11T20:12:42.522Z,24.77
2023-04-11T20:15:11.451Z,22.40
2023-04-11T20:17:39.679Z,23.23
2023-04-11T20:20:11.192Z,25.70
2023-04-11T20:22:40.392Z,26.17
2023-04-11T20:25:11.527Z,22.80
2023-04-11T20:27:40.276Z,23.50
2023-04-11T20:30:11.092Z,26.17
2023-04-11T20:32:39.693Z,23.27
2023-04-11T20:35:08.755Z,22.60
2023-04-11T20:37:37.047Z,25.93
2023-04-11T20:40:08.047Z,24.03
2023-04-11T20:42:39.908Z,24.50
2023-04-11T20:45:11.763Z,25.97
2023-04-11T20:47:40.510Z,27.57
2023-04-11T20:50:10.469Z,26.87
2023-04-11T20:52:41.220Z,29.00
2023-04-11T20:55:10.938Z,29.90
2023-04-11T20:57:39.160Z,26.47
2023-04-11T21:00:14.500Z,30.07
2023-04-11T21:02:44.598Z,22.60
2023-04-11T21:05:13.449Z,28.20
2023-04-11T21:07:43.302Z,29.53
2023-04-11T21:10:12.152Z,28.30
2023-04-11T21:12:40.858Z,20.97
2023-04-11T21:15:11.886Z,23.33
2023-04-11T21:17:40.542Z,24.90
2023-04-11T21:20:17.763Z,27.33
2023-04-11T21:22:46.828Z,21.43
2023-04-11T21:25:15.840Z,19.87
2023-04-11T21:27:43.969Z,15.50
2023-04-11T21:30:14.918Z,14.13
2023-04-11T21:32:43.234Z,15.60
2023-04-11T21:35:12.422Z,15.27
2023-04-11T21:37:40.556Z,20.07
2023-04-11T21:40:09.514Z,15.17
2023-04-11T21:42:37.580Z,13.70
2023-04-11T21:45:06.162Z,17.40
2023-04-11T21:47:35.608Z,19.03
2023-04-11T21:50:03.751Z,15.20
2023-04-11T21:52:31.737Z,15.77
2023-04-11T21:54:59.742Z,15.47
2023-04-11T21:57:27.729Z,15.90
2023-04-11T21:59:55.782Z,17.17
2023-04-11T22:02:23.974Z,12.80
2023-04-11T22:05:05.814Z,14.83
2023-04-11T22:07:39.046Z,12.67
2023-04-11T22:10:10.467Z,11.67
2023-04-11T22:12:39.205Z,12.10
2023-04-11T22:15:08.446Z,12.00
2023-04-11T22:17:37.251Z,14.57
2023-04-11T22:20:09.862Z,12.97
2023-04-11T22:22:38.685Z,12.17
2023-04-11T22:25:08.374Z,14.50
2023-04-11T22:27:36.546Z,12.57
2023-04-11T22:30:05.328Z,15.17
2023-04-11T22:32:33.677Z,15.00
2023-04-11T22:35:02.134Z,16.00
2023-04-11T22:37:31.526Z,12.37
2023-04-11T22:39:59.564Z,13.30
2023-04-11T22:42:27.679Z,13.13
2023-04-11T22:44:55.677Z,14.90
2023-04-11T22:47:23.768Z,17.63
2023-04-11T22:49:51.832Z,18.73
2023-04-11T22:52:24.381Z,16.23
2023-04-11T22:54:53.829Z,15.10
2023-04-11T22:57:21.847Z,12.30
2023-04-11T22:59:49.852Z,14.17
2023-04-11T23:02:17.951Z,15.57
2023-04-11T23:04:46.417Z,13.80
2023-04-11T23:07:14.464Z,17.33
2023-04-11T23:09:42.614Z,12.23
2023-04-11T23:12:12.187Z,11.27
2023-04-11T23:14:40.197Z,12.43
2023-04-11T23:17:08.320Z,15.43
2023-04-11T23:19:36.991Z,13.87
2023-04-11T23:22:05.053Z,11.53
2023-04-11T23:24:33.042Z,16.33
2023-04-11T23:27:01.663Z,13.70
2023-04-11T23:29:31.240Z,13.27
2023-04-11T23:31:59.251Z,13.07
2023-04-11T23:34:27.270Z,10.47
2023-04-11T23:36:55.257Z,10.73
2023-04-11T23:39:23.871Z,13.30
2023-04-11T23:41:53.111Z,10.53
2023-04-11T23:44:21.742Z,10.90
2023-04-11T23:46:51.360Z,11.13
2023-04-11T23:49:19.457Z,11.37
2023-04-11T23:51:47.524Z,11.70
2023-04-11T23:54:15.550Z,12.03
2023-04-11T23:56:44.185Z,9.17
2023-04-11T23:59:12.450Z,13.37
